Share

Naknek, AK

1:15 AM AKDT on April 24, 2014 (GMT -0800)
Iliamna (PAIL) Elev 161 ft | 59.75 °N, 154.91 °W | Change Station

Current weather conditions updated 22 minutes ago

Clear
Clear
32 °F
Feels Like 26 °F
N
6
Wind Variable Wind from ENE
Sunrise 6:48 AM
Sunset 10:03 PM
Moon Waning Crescent

Today is forecast to be nearly the same temperature as yesterday. Afternoon showers.

Pressure 29.71 in
Visibility 10.0 miles
Clouds Clear
Windchill 26 °F
Dew Point 29 °F
Humidity 88%
Rainfall 0.00 in
Snow Depth Not available.
UV 0 out of 16
Pollen Not available.
Air Quality Not available.
Flu Activity Sporadic
METAR PAIL 240853Z AUTO 06005KT 10SM CLR 00/M02 A2970 RMK AO2 SLP059 T00001017 400830000 52001 TSNO

More Conditions Fewer Conditions

Pressure 29.71 in
Visibility 10.0 miles
Clouds Clear
Windchill 26 °F
Dew Point 29 °F
Humidity 88%
Rainfall 0.00 in
Snow Depth Not available.
UV 0 out of 16
Pollen Not available.
Air Quality Not available.
Flu Activity Sporadic
METAR PAIL 240853Z AUTO 06005KT 10SM CLR 00/M02 A2970 RMK AO2 SLP059 T00001017 400830000 52001 TSNO

More Conditions Fewer Conditions

10-Day Weather Forecast

Almanac

Astronomy

Apr. 24, 2014 Rise Set
Actual Time 6:48 AM AKDT 10:03 PM AKDT
Civil Twilight 6:00 AM AKDT 10:51 PM AKDT
Nautical Twilight 4:55 AM AKDT 11:57 PM AKDT
Astronomical Twilight 2:52 AM AKDT 1:52 AM AKDT
Moon 5:14 AM AKDT 4:28 PM AKDT
Length of Visible Light 16h 50m
Length of Day
15h 15m
Tomorrow will be 5m 2s longer.
Waning Crescent, 27% of the Moon is Illuminated
Today
Waning Crescent
Apr 29
New
May 6
First Quarter
May 14
Full
May 21
Last Quarter

Today's Extremes

State Highs State Lows

Community

  • Stacked
    Stacked
  • clouds approaching Red Sox Nation
    clouds approaching Red Sox Nation
  • Balance
    Balance
  • Nestled In
    Nestled In
  • Stunning Sunrise
    Stunning Sunrise

WunderPhotos

Upload Photos

1,704,575 photos uploaded!

WunderBlogs® & News

Nearby

Snow Depth

Station Depth Elevation
Port Graham 2 in 300 ft
Mcneil Canyon 3 in 1320 ft
MF Bradley River 17 in 2300 ft
Nuka Glacier 27 in 1250 ft
Cooper Lake 18 in 1200 ft

Coastal Water Temperatures

Place Temperature
No Stations Reporting

Earthquake Activity

City Distance Mag. Time & Date
No recent earthquake activity has been reported nearby.
Minimum magnitude displayed is 2.5.

Nearby Weather Stations

Station Location Temp. Windchill Dew Point Humidity Wind Precip. Elev Updated Type
MesoWest LOWER MULCHATNA , South Naknek, AK 36 °F 36 °F - - North  at  - 0.00 in / hr 319 ft 12:00 AM AKDT MADIS

Show More Stations Show Fewer Stations

What do you think?

We're not finished. Please let us know what you like, what you don't like, and what you are still missing.